sensor_id;sensor_type;location;lat;lon;timestamp;P1;durP1;ratioP1;P2;durP2;ratioP2
39822;SDS011;25499;53.958;10.970;2023-04-23T05:30:46;24.98;;;19.15;;
39822;SDS011;25499;53.958;10.970;2023-04-23T05:33:13;22.30;;;18.17;;
39822;SDS011;25499;53.958;10.970;2023-04-23T05:35:41;21.33;;;17.55;;
39822;SDS011;25499;53.958;10.970;2023-04-23T05:38:08;20.27;;;16.08;;
39822;SDS011;25499;53.958;10.970;2023-04-23T05:40:35;20.63;;;15.75;;
39822;SDS011;25499;53.958;10.970;2023-04-23T05:43:02;21.05;;;15.65;;
39822;SDS011;25499;53.958;10.970;2023-04-23T05:45:29;21.65;;;15.77;;
39822;SDS011;25499;53.958;10.970;2023-04-23T05:47:57;20.30;;;15.07;;
39822;SDS011;25499;53.958;10.970;2023-04-23T05:50:24;23.05;;;15.48;;
39822;SDS011;25499;53.958;10.970;2023-04-23T05:52:50;19.73;;;14.60;;
39822;SDS011;25499;53.958;10.970;2023-04-23T05:55:18;21.48;;;14.05;;
39822;SDS011;25499;53.958;10.970;2023-04-23T05:57:45;19.33;;;13.38;;
39822;SDS011;25499;53.958;10.970;2023-04-23T06:00:13;18.20;;;12.20;;
39822;SDS011;25499;53.958;10.970;2023-04-23T06:02:41;20.10;;;13.18;;
39822;SDS011;25499;53.958;10.970;2023-04-23T06:05:09;17.00;;;12.18;;
39822;SDS011;25499;53.958;10.970;2023-04-23T06:07:37;17.90;;;11.50;;
39822;SDS011;25499;53.958;10.970;2023-04-23T06:10:06;14.05;;;9.95;;
39822;SDS011;25499;53.958;10.970;2023-04-23T06:12:33;16.73;;;10.20;;
39822;SDS011;25499;53.958;10.970;2023-04-23T06:15:04;13.25;;;9.25;;
39822;SDS011;25499;53.958;10.970;2023-04-23T06:17:32;17.67;;;9.55;;
39822;SDS011;25499;53.958;10.970;2023-04-23T06:19:59;16.27;;;10.10;;
39822;SDS011;25499;53.958;10.970;2023-04-23T06:22:27;13.93;;;9.40;;
39822;SDS011;25499;53.958;10.970;2023-04-23T06:24:55;13.68;;;8.80;;
39822;SDS011;25499;53.958;10.970;2023-04-23T06:27:21;15.48;;;8.50;;
39822;SDS011;25499;53.958;10.970;2023-04-23T06:29:48;14.43;;;8.27;;
39822;SDS011;25499;53.958;10.970;2023-04-23T06:32:15;12.27;;;8.38;;
39822;SDS011;25499;53.958;10.970;2023-04-23T06:34:41;11.95;;;7.32;;
39822;SDS011;25499;53.958;10.970;2023-04-23T06:37:08;9.85;;;6.75;;
39822;SDS011;25499;53.958;10.970;2023-04-23T06:39:36;13.07;;;6.30;;
39822;SDS011;25499;53.958;10.970;2023-04-23T06:42:03;9.93;;;6.38;;
39822;SDS011;25499;53.958;10.970;2023-04-23T06:44:36;8.73;;;5.95;;
39822;SDS011;25499;53.958;10.970;2023-04-23T06:47:03;7.07;;;5.22;;
39822;SDS011;25499;53.958;10.970;2023-04-23T06:49:29;6.80;;;4.93;;
39822;SDS011;25499;53.958;10.970;2023-04-23T06:51:57;11.80;;;4.78;;
39822;SDS011;25499;53.958;10.970;2023-04-23T06:54:23;6.68;;;4.32;;
39822;SDS011;25499;53.958;10.970;2023-04-23T06:56:54;5.38;;;4.00;;
39822;SDS011;25499;53.958;10.970;2023-04-23T06:59:21;5.00;;;4.07;;
39822;SDS011;25499;53.958;10.970;2023-04-23T07:01:47;6.97;;;4.70;;
39822;SDS011;25499;53.958;10.970;2023-04-23T07:04:14;5.68;;;4.20;;
39822;SDS011;25499;53.958;10.970;2023-04-23T07:06:41;5.40;;;4.30;;
39822;SDS011;25499;53.958;10.970;2023-04-23T07:09:07;7.78;;;4.70;;
39822;SDS011;25499;53.958;10.970;2023-04-23T07:11:34;5.47;;;4.43;;
39822;SDS011;25499;53.958;10.970;2023-04-23T07:14:02;5.30;;;4.40;;
39822;SDS011;25499;53.958;10.970;2023-04-23T07:16:31;6.47;;;4.10;;
39822;SDS011;25499;53.958;10.970;2023-04-23T07:18:58;7.75;;;4.97;;
39822;SDS011;25499;53.958;10.970;2023-04-23T07:21:27;9.32;;;4.68;;
39822;SDS011;25499;53.958;10.970;2023-04-23T07:23:55;5.45;;;4.50;;
39822;SDS011;25499;53.958;10.970;2023-04-23T07:26:23;8.00;;;4.60;;
39822;SDS011;25499;53.958;10.970;2023-04-23T07:28:51;6.95;;;4.50;;
39822;SDS011;25499;53.958;10.970;2023-04-23T07:31:20;6.47;;;4.65;;
39822;SDS011;25499;53.958;10.970;2023-04-23T07:33:53;7.88;;;4.80;;
39822;SDS011;25499;53.958;10.970;2023-04-23T07:36:20;7.32;;;4.53;;
39822;SDS011;25499;53.958;10.970;2023-04-23T07:38:47;6.90;;;4.18;;
39822;SDS011;25499;53.958;10.970;2023-04-23T07:41:15;5.63;;;3.92;;
39822;SDS011;25499;53.958;10.970;2023-04-23T07:43:42;8.52;;;4.05;;
39822;SDS011;25499;53.958;10.970;2023-04-23T07:46:09;7.13;;;4.25;;
39822;SDS011;25499;53.958;10.970;2023-04-23T07:48:37;6.38;;;4.68;;
39822;SDS011;25499;53.958;10.970;2023-04-23T07:51:04;5.85;;;3.92;;
39822;SDS011;25499;53.958;10.970;2023-04-23T07:53:32;5.63;;;4.20;;
39822;SDS011;25499;53.958;10.970;2023-04-23T07:55:59;4.68;;;3.97;;
39822;SDS011;25499;53.958;10.970;2023-04-23T07:58:26;6.13;;;4.07;;
39822;SDS011;25499;53.958;10.970;2023-04-23T08:00:54;9.60;;;4.32;;
39822;SDS011;25499;53.958;10.970;2023-04-23T08:03:21;5.88;;;4.25;;
39822;SDS011;25499;53.958;10.970;2023-04-23T08:05:49;6.30;;;4.20;;
39822;SDS011;25499;53.958;10.970;2023-04-23T08:08:16;6.90;;;4.25;;
39822;SDS011;25499;53.958;10.970;2023-04-23T08:10:45;7.38;;;4.30;;
39822;SDS011;25499;53.958;10.970;2023-04-23T08:13:11;6.63;;;4.45;;
39822;SDS011;25499;53.958;10.970;2023-04-23T08:15:38;7.30;;;4.68;;
39822;SDS011;25499;53.958;10.970;2023-04-23T08:18:05;5.20;;;4.32;;
39822;SDS011;25499;53.958;10.970;2023-04-23T08:20:32;4.57;;;3.90;;
39822;SDS011;25499;53.958;10.970;2023-04-23T08:23:01;6.40;;;4.25;;
39822;SDS011;25499;53.958;10.970;2023-04-23T08:25:28;5.88;;;4.45;;
39822;SDS011;25499;53.958;10.970;2023-04-23T08:27:55;8.20;;;4.78;;
39822;SDS011;25499;53.958;10.970;2023-04-23T08:30:22;6.93;;;4.57;;
39822;SDS011;25499;53.958;10.970;2023-04-23T08:32:50;6.68;;;4.72;;
39822;SDS011;25499;53.958;10.970;2023-04-23T08:35:18;6.10;;;4.53;;
39822;SDS011;25499;53.958;10.970;2023-04-23T08:37:45;6.38;;;4.70;;
39822;SDS011;25499;53.958;10.970;2023-04-23T08:40:13;5.60;;;4.60;;
39822;SDS011;25499;53.958;10.970;2023-04-23T08:42:41;6.07;;;4.65;;
39822;SDS011;25499;53.958;10.970;2023-04-23T08:45:11;6.85;;;4.82;;
39822;SDS011;25499;53.958;10.970;2023-04-23T08:47:38;5.28;;;3.83;;
39822;SDS011;25499;53.958;10.970;2023-04-23T08:50:07;4.88;;;4.22;;
39822;SDS011;25499;53.958;10.970;2023-04-23T08:52:37;5.40;;;4.72;;
39822;SDS011;25499;53.958;10.970;2023-04-23T08:55:06;5.00;;;4.50;;
39822;SDS011;25499;53.958;10.970;2023-04-23T08:57:38;6.68;;;4.30;;
39822;SDS011;25499;53.958;10.970;2023-04-23T09:00:06;5.13;;;3.90;;
39822;SDS011;25499;53.958;10.970;2023-04-23T09:02:35;7.97;;;4.25;;
39822;SDS011;25499;53.958;10.970;2023-04-23T09:05:02;6.75;;;4.10;;
39822;SDS011;25499;53.958;10.970;2023-04-23T09:07:29;6.22;;;4.00;;
39822;SDS011;25499;53.958;10.970;2023-04-23T09:09:56;8.75;;;4.35;;
39822;SDS011;25499;53.958;10.970;2023-04-23T09:12:23;5.43;;;3.78;;
39822;SDS011;25499;53.958;10.970;2023-04-23T09:14:51;4.35;;;3.92;;
39822;SDS011;25499;53.958;10.970;2023-04-23T09:17:18;6.57;;;3.60;;
39822;SDS011;25499;53.958;10.970;2023-04-23T09:19:46;7.20;;;4.38;;
39822;SDS011;25499;53.958;10.970;2023-04-23T09:22:16;7.13;;;3.95;;
39822;SDS011;25499;53.958;10.970;2023-04-23T09:25:03;4.32;;;3.85;;
39822;SDS011;25499;53.958;10.970;2023-04-23T09:27:32;5.43;;;3.90;;
39822;SDS011;25499;53.958;10.970;2023-04-23T09:30:02;5.28;;;4.00;;
39822;SDS011;25499;53.958;10.970;2023-04-23T09:32:31;5.45;;;4.30;;
39822;SDS011;25499;53.958;10.970;2023-04-23T09:35:01;6.43;;;4.10;;
39822;SDS011;25499;53.958;10.970;2023-04-23T09:37:28;6.25;;;4.50;;
39822;SDS011;25499;53.958;10.970;2023-04-23T09:40:21;6.07;;;4.18;;
39822;SDS011;25499;53.958;10.970;2023-04-23T09:42:49;5.20;;;4.15;;
39822;SDS011;25499;53.958;10.970;2023-04-23T09:45:19;4.82;;;4.05;;
39822;SDS011;25499;53.958;10.970;2023-04-23T09:47:48;6.03;;;4.55;;
39822;SDS011;25499;53.958;10.970;2023-04-23T09:50:15;8.55;;;4.25;;
39822;SDS011;25499;53.958;10.970;2023-04-23T09:52:43;5.68;;;4.22;;
39822;SDS011;25499;53.958;10.970;2023-04-23T09:55:09;9.23;;;4.38;;
39822;SDS011;25499;53.958;10.970;2023-04-23T09:57:36;5.57;;;4.10;;
39822;SDS011;25499;53.958;10.970;2023-04-23T10:00:11;5.75;;;4.57;;
39822;SDS011;25499;53.958;10.970;2023-04-23T10:02:45;5.03;;;3.88;;
39822;SDS011;25499;53.958;10.970;2023-04-23T10:05:13;6.57;;;4.50;;
39822;SDS011;25499;53.958;10.970;2023-04-23T10:07:41;6.82;;;4.15;;
39822;SDS011;25499;53.958;10.970;2023-04-23T10:10:09;6.20;;;4.43;;
39822;SDS011;25499;53.958;10.970;2023-04-23T10:12:36;6.43;;;4.57;;
39822;SDS011;25499;53.958;10.970;2023-04-23T10:15:03;3.97;;;3.58;;
39822;SDS011;25499;53.958;10.970;2023-04-23T10:17:33;5.00;;;4.05;;
39822;SDS011;25499;53.958;10.970;2023-04-23T10:20:02;4.55;;;3.22;;
39822;SDS011;25499;53.958;10.970;2023-04-23T10:22:30;6.40;;;4.72;;
39822;SDS011;25499;53.958;10.970;2023-04-23T10:24:59;3.63;;;3.17;;
39822;SDS011;25499;53.958;10.970;2023-04-23T10:27:30;6.35;;;5.28;;
39822;SDS011;25499;53.958;10.970;2023-04-23T10:29:57;4.38;;;3.92;;
39822;SDS011;25499;53.958;10.970;2023-04-23T10:32:25;5.65;;;5.05;;
39822;SDS011;25499;53.958;10.970;2023-04-23T10:34:53;5.75;;;4.47;;
39822;SDS011;25499;53.958;10.970;2023-04-23T10:37:21;6.68;;;4.93;;
39822;SDS011;25499;53.958;10.970;2023-04-23T10:39:48;8.45;;;5.35;;
39822;SDS011;25499;53.958;10.970;2023-04-23T10:42:19;7.40;;;5.20;;
39822;SDS011;25499;53.958;10.970;2023-04-23T10:44:47;7.35;;;4.03;;
39822;SDS011;25499;53.958;10.970;2023-04-23T10:47:14;6.28;;;5.20;;
39822;SDS011;25499;53.958;10.970;2023-04-23T10:49:41;4.60;;;4.18;;
39822;SDS011;25499;53.958;10.970;2023-04-23T10:52:10;6.40;;;5.30;;
39822;SDS011;25499;53.958;10.970;2023-04-23T10:54:41;7.93;;;4.28;;
39822;SDS011;25499;53.958;10.970;2023-04-23T10:57:09;5.82;;;5.22;;
39822;SDS011;25499;53.958;10.970;2023-04-23T10:59:37;6.80;;;4.30;;
39822;SDS011;25499;53.958;10.970;2023-04-23T11:02:06;7.20;;;5.28;;
39822;SDS011;25499;53.958;10.970;2023-04-23T11:04:35;6.13;;;5.35;;
39822;SDS011;25499;53.958;10.970;2023-04-23T11:07:07;7.78;;;5.03;;
39822;SDS011;25499;53.958;10.970;2023-04-23T11:09:36;7.50;;;5.57;;
39822;SDS011;25499;53.958;10.970;2023-04-23T11:12:09;5.32;;;4.57;;
39822;SDS011;25499;53.958;10.970;2023-04-23T11:14:40;6.75;;;5.05;;
39822;SDS011;25499;53.958;10.970;2023-04-23T11:17:11;6.55;;;3.58;;
39822;SDS011;25499;53.958;10.970;2023-04-23T11:19:40;6.10;;;5.00;;
39822;SDS011;25499;53.958;10.970;2023-04-23T11:22:32;6.72;;;4.93;;
39822;SDS011;25499;53.958;10.970;2023-04-23T11:25:00;4.55;;;3.67;;
39822;SDS011;25499;53.958;10.970;2023-04-23T11:27:29;6.25;;;4.75;;
39822;SDS011;25499;53.958;10.970;2023-04-23T11:29:56;7.13;;;4.57;;
39822;SDS011;25499;53.958;10.970;2023-04-23T11:32:23;5.53;;;4.50;;
39822;SDS011;25499;53.958;10.970;2023-04-23T11:34:52;5.25;;;4.68;;
39822;SDS011;25499;53.958;10.970;2023-04-23T11:37:23;9.88;;;5.50;;
39822;SDS011;25499;53.958;10.970;2023-04-23T11:39:50;4.20;;;3.55;;
39822;SDS011;25499;53.958;10.970;2023-04-23T11:42:16;6.03;;;4.88;;
39822;SDS011;25499;53.958;10.970;2023-04-23T11:44:45;5.30;;;4.45;;
39822;SDS011;25499;53.958;10.970;2023-04-23T11:47:13;6.00;;;4.50;;
39822;SDS011;25499;53.958;10.970;2023-04-23T11:49:41;5.82;;;4.75;;
39822;SDS011;25499;53.958;10.970;2023-04-23T11:52:09;4.07;;;3.63;;
39822;SDS011;25499;53.958;10.970;2023-04-23T11:54:38;7.03;;;5.30;;
39822;SDS011;25499;53.958;10.970;2023-04-23T11:57:06;4.22;;;3.33;;
39822;SDS011;25499;53.958;10.970;2023-04-23T11:59:33;5.85;;;3.75;;
39822;SDS011;25499;53.958;10.970;2023-04-23T12:02:01;4.72;;;4.18;;
39822;SDS011;25499;53.958;10.970;2023-04-23T12:04:28;5.70;;;4.20;;
39822;SDS011;25499;53.958;10.970;2023-04-23T12:06:56;6.88;;;4.80;;
39822;SDS011;25499;53.958;10.970;2023-04-23T12:09:23;4.80;;;4.10;;
39822;SDS011;25499;53.958;10.970;2023-04-23T12:11:52;4.00;;;3.60;;
39822;SDS011;25499;53.958;10.970;2023-04-23T12:14:23;6.03;;;4.35;;
39822;SDS011;25499;53.958;10.970;2023-04-23T12:16:52;5.35;;;3.97;;
39822;SDS011;25499;53.958;10.970;2023-04-23T12:19:24;5.05;;;3.13;;
39822;SDS011;25499;53.958;10.970;2023-04-23T12:21:53;4.88;;;3.78;;
39822;SDS011;25499;53.958;10.970;2023-04-23T12:24:21;5.53;;;4.70;;
39822;SDS011;25499;53.958;10.970;2023-04-23T12:26:48;5.15;;;4.43;;
39822;SDS011;25499;53.958;10.970;2023-04-23T12:29:19;4.25;;;2.60;;
39822;SDS011;25499;53.958;10.970;2023-04-23T12:31:47;4.47;;;3.83;;
39822;SDS011;25499;53.958;10.970;2023-04-23T12:34:16;5.68;;;3.90;;
39822;SDS011;25499;53.958;10.970;2023-04-23T12:36:47;5.85;;;4.40;;
39822;SDS011;25499;53.958;10.970;2023-04-23T12:41:51;4.95;;;3.88;;
39822;SDS011;25499;53.958;10.970;2023-04-23T12:44:19;4.70;;;4.15;;
39822;SDS011;25499;53.958;10.970;2023-04-23T12:46:48;3.60;;;3.10;;
39822;SDS011;25499;53.958;10.970;2023-04-23T12:49:16;4.80;;;3.55;;
39822;SDS011;25499;53.958;10.970;2023-04-23T12:51:43;3.53;;;3.17;;
39822;SDS011;25499;53.958;10.970;2023-04-23T12:54:12;5.13;;;4.63;;
39822;SDS011;25499;53.958;10.970;2023-04-23T12:56:39;4.63;;;4.10;;
39822;SDS011;25499;53.958;10.970;2023-04-23T12:59:05;4.90;;;4.00;;
39822;SDS011;25499;53.958;10.970;2023-04-23T13:01:32;4.28;;;3.60;;
39822;SDS011;25499;53.958;10.970;2023-04-23T13:03:59;5.63;;;3.78;;
39822;SDS011;25499;53.958;10.970;2023-04-23T13:06:26;4.07;;;3.67;;
39822;SDS011;25499;53.958;10.970;2023-04-23T13:08:53;5.45;;;4.65;;
39822;SDS011;25499;53.958;10.970;2023-04-23T13:11:22;6.18;;;4.78;;
39822;SDS011;25499;53.958;10.970;2023-04-23T13:13:49;5.03;;;4.53;;
39822;SDS011;25499;53.958;10.970;2023-04-23T13:16:17;5.82;;;5.18;;
39822;SDS011;25499;53.958;10.970;2023-04-23T13:18:44;5.28;;;4.70;;
39822;SDS011;25499;53.958;10.970;2023-04-23T13:21:10;7.53;;;4.90;;
39822;SDS011;25499;53.958;10.970;2023-04-23T13:23:37;5.78;;;5.00;;
39822;SDS011;25499;53.958;10.970;2023-04-23T13:26:04;8.00;;;5.05;;
39822;SDS011;25499;53.958;10.970;2023-04-23T13:28:33;6.90;;;4.57;;
39822;SDS011;25499;53.958;10.970;2023-04-23T13:31:00;6.40;;;4.32;;
39822;SDS011;25499;53.958;10.970;2023-04-23T13:33:28;5.82;;;5.05;;
39822;SDS011;25499;53.958;10.970;2023-04-23T13:35:55;8.55;;;5.50;;
39822;SDS011;25499;53.958;10.970;2023-04-23T13:38:23;6.40;;;5.20;;
39822;SDS011;25499;53.958;10.970;2023-04-23T13:40:49;5.07;;;3.90;;
39822;SDS011;25499;53.958;10.970;2023-04-23T13:43:17;5.90;;;5.13;;
39822;SDS011;25499;53.958;10.970;2023-04-23T13:45:45;5.57;;;4.78;;
39822;SDS011;25499;53.958;10.970;2023-04-23T13:48:12;6.00;;;4.78;;
39822;SDS011;25499;53.958;10.970;2023-04-23T13:50:39;4.22;;;3.03;;
39822;SDS011;25499;53.958;10.970;2023-04-23T13:53:07;7.18;;;5.00;;
39822;SDS011;25499;53.958;10.970;2023-04-23T13:55:34;7.68;;;4.80;;
39822;SDS011;25499;53.958;10.970;2023-04-23T13:58:01;6.00;;;4.93;;
39822;SDS011;25499;53.958;10.970;2023-04-23T14:00:28;4.28;;;3.85;;
39822;SDS011;25499;53.958;10.970;2023-04-23T14:02:58;6.60;;;5.15;;
39822;SDS011;25499;53.958;10.970;2023-04-23T14:05:26;4.15;;;3.53;;
39822;SDS011;25499;53.958;10.970;2023-04-23T14:07:52;5.75;;;5.05;;
39822;SDS011;25499;53.958;10.970;2023-04-23T14:10:19;5.32;;;4.80;;
39822;SDS011;25499;53.958;10.970;2023-04-23T14:12:46;6.93;;;4.82;;
39822;SDS011;25499;53.958;10.970;2023-04-23T14:15:13;6.97;;;5.20;;
39822;SDS011;25499;53.958;10.970;2023-04-23T14:17:42;6.95;;;4.55;;
39822;SDS011;25499;53.958;10.970;2023-04-23T14:20:11;4.50;;;3.40;;
39822;SDS011;25499;53.958;10.970;2023-04-23T14:22:39;5.03;;;3.05;;
39822;SDS011;25499;53.958;10.970;2023-04-23T14:25:07;5.88;;;5.03;;
39822;SDS011;25499;53.958;10.970;2023-04-23T14:27:38;6.18;;;5.38;;
39822;SDS011;25499;53.958;10.970;2023-04-23T14:30:12;7.20;;;6.05;;
39822;SDS011;25499;53.958;10.970;2023-04-23T14:32:41;7.35;;;5.72;;
39822;SDS011;25499;53.958;10.970;2023-04-23T14:35:08;7.35;;;6.32;;
39822;SDS011;25499;53.958;10.970;2023-04-23T14:37:37;7.55;;;6.18;;
39822;SDS011;25499;53.958;10.970;2023-04-23T14:40:08;8.82;;;6.03;;
39822;SDS011;25499;53.958;10.970;2023-04-23T14:42:37;4.97;;;4.20;;
39822;SDS011;25499;53.958;10.970;2023-04-23T14:45:04;5.85;;;5.13;;
39822;SDS011;25499;53.958;10.970;2023-04-23T14:47:31;5.22;;;4.70;;
39822;SDS011;25499;53.958;10.970;2023-04-23T14:49:58;6.85;;;5.03;;
39822;SDS011;25499;53.958;10.970;2023-04-23T14:52:25;5.97;;;5.35;;
39822;SDS011;25499;53.958;10.970;2023-04-23T14:54:55;4.20;;;3.88;;
39822;SDS011;25499;53.958;10.970;2023-04-23T14:57:28;5.55;;;4.80;;
39822;SDS011;25499;53.958;10.970;2023-04-23T14:59:56;6.00;;;4.85;;
39822;SDS011;25499;53.958;10.970;2023-04-23T15:02:22;6.93;;;6.22;;
39822;SDS011;25499;53.958;10.970;2023-04-23T15:04:50;7.75;;;6.95;;
39822;SDS011;25499;53.958;10.970;2023-04-23T15:07:17;5.38;;;4.13;;
39822;SDS011;25499;53.958;10.970;2023-04-23T15:09:44;6.60;;;5.90;;
39822;SDS011;25499;53.958;10.970;2023-04-23T15:12:24;5.20;;;4.70;;
39822;SDS011;25499;53.958;10.970;2023-04-23T15:15:13;5.80;;;5.25;;
39822;SDS011;25499;53.958;10.970;2023-04-23T15:17:41;10.55;;;6.22;;
39822;SDS011;25499;53.958;10.970;2023-04-23T15:20:08;8.65;;;6.40;;
39822;SDS011;25499;53.958;10.970;2023-04-23T15:22:36;6.65;;;5.68;;
39822;SDS011;25499;53.958;10.970;2023-04-23T15:25:03;7.05;;;5.72;;
39822;SDS011;25499;53.958;10.970;2023-04-23T15:27:32;7.78;;;5.90;;
39822;SDS011;25499;53.958;10.970;2023-04-23T15:29:59;6.55;;;5.38;;
39822;SDS011;25499;53.958;10.970;2023-04-23T15:32:26;4.70;;;4.30;;
39822;SDS011;25499;53.958;10.970;2023-04-23T15:34:53;5.68;;;4.60;;
39822;SDS011;25499;53.958;10.970;2023-04-23T15:37:20;6.68;;;5.63;;
39822;SDS011;25499;53.958;10.970;2023-04-23T15:39:48;8.80;;;6.25;;
39822;SDS011;25499;53.958;10.970;2023-04-23T15:42:15;8.10;;;6.70;;
39822;SDS011;25499;53.958;10.970;2023-04-23T15:44:47;8.38;;;6.18;;
39822;SDS011;25499;53.958;10.970;2023-04-23T15:47:14;6.80;;;6.10;;
39822;SDS011;25499;53.958;10.970;2023-04-23T15:49:41;7.82;;;6.53;;
39822;SDS011;25499;53.958;10.970;2023-04-23T15:52:08;5.45;;;4.20;;
39822;SDS011;25499;53.958;10.970;2023-04-23T15:54:35;6.32;;;5.38;;
39822;SDS011;25499;53.958;10.970;2023-04-23T15:57:01;6.63;;;5.95;;
39822;SDS011;25499;53.958;10.970;2023-04-23T15:59:28;6.32;;;5.43;;
39822;SDS011;25499;53.958;10.970;2023-04-23T16:01:56;7.55;;;5.35;;
39822;SDS011;25499;53.958;10.970;2023-04-23T16:04:23;6.32;;;4.95;;
39822;SDS011;25499;53.958;10.970;2023-04-23T16:06:50;7.82;;;5.35;;
39822;SDS011;25499;53.958;10.970;2023-04-23T16:09:17;4.95;;;4.45;;
39822;SDS011;25499;53.958;10.970;2023-04-23T16:11:43;7.07;;;5.07;;
39822;SDS011;25499;53.958;10.970;2023-04-23T16:14:11;6.93;;;5.20;;
39822;SDS011;25499;53.958;10.970;2023-04-23T16:16:38;6.05;;;4.72;;
39822;SDS011;25499;53.958;10.970;2023-04-23T16:19:06;6.50;;;4.47;;
39822;SDS011;25499;53.958;10.970;2023-04-23T16:21:33;3.90;;;3.50;;
39822;SDS011;25499;53.958;10.970;2023-04-23T16:24:00;6.32;;;4.47;;
39822;SDS011;25499;53.958;10.970;2023-04-23T16:26:26;8.38;;;5.00;;
39822;SDS011;25499;53.958;10.970;2023-04-23T16:28:53;5.20;;;4.70;;
39822;SDS011;25499;53.958;10.970;2023-04-23T16:31:20;5.95;;;4.95;;
39822;SDS011;25499;53.958;10.970;2023-04-23T16:33:47;9.32;;;6.18;;
39822;SDS011;25499;53.958;10.970;2023-04-23T16:36:15;6.40;;;4.38;;
39822;SDS011;25499;53.958;10.970;2023-04-23T16:38:42;6.93;;;4.90;;
39822;SDS011;25499;53.958;10.970;2023-04-23T16:41:09;6.13;;;5.35;;
39822;SDS011;25499;53.958;10.970;2023-04-23T16:43:39;3.95;;;3.55;;
39822;SDS011;25499;53.958;10.970;2023-04-23T16:46:06;5.85;;;4.88;;
39822;SDS011;25499;53.958;10.970;2023-04-23T16:48:35;7.00;;;4.60;;
39822;SDS011;25499;53.958;10.970;2023-04-23T16:51:03;7.80;;;4.97;;
39822;SDS011;25499;53.958;10.970;2023-04-23T16:53:31;6.55;;;4.95;;
39822;SDS011;25499;53.958;10.970;2023-04-23T16:56:00;5.40;;;4.68;;
39822;SDS011;25499;53.958;10.970;2023-04-23T16:58:27;5.95;;;4.40;;
39822;SDS011;25499;53.958;10.970;2023-04-23T17:00:53;8.10;;;4.78;;
39822;SDS011;25499;53.958;10.970;2023-04-23T17:03:20;5.45;;;4.38;;
39822;SDS011;25499;53.958;10.970;2023-04-23T17:05:47;5.75;;;4.63;;
39822;SDS011;25499;53.958;10.970;2023-04-23T17:08:20;5.18;;;4.60;;
39822;SDS011;25499;53.958;10.970;2023-04-23T17:10:50;6.03;;;4.80;;
39822;SDS011;25499;53.958;10.970;2023-04-23T17:13:16;7.70;;;4.45;;
39822;SDS011;25499;53.958;10.970;2023-04-23T17:15:45;6.03;;;4.53;;
39822;SDS011;25499;53.958;10.970;2023-04-23T17:18:12;6.13;;;4.78;;
39822;SDS011;25499;53.958;10.970;2023-04-23T17:20:39;5.03;;;4.60;;
39822;SDS011;25499;53.958;10.970;2023-04-23T17:23:05;7.13;;;5.80;;
39822;SDS011;25499;53.958;10.970;2023-04-23T17:25:32;6.53;;;5.93;;
39822;SDS011;25499;53.958;10.970;2023-04-23T17:28:00;7.22;;;6.50;;
39822;SDS011;25499;53.958;10.970;2023-04-23T17:30:28;7.07;;;6.05;;
39822;SDS011;25499;53.958;10.970;2023-04-23T17:32:55;5.63;;;5.07;;
39822;SDS011;25499;53.958;10.970;2023-04-23T17:35:21;10.60;;;6.43;;
39822;SDS011;25499;53.958;10.970;2023-04-23T17:37:48;10.88;;;7.03;;
39822;SDS011;25499;53.958;10.970;2023-04-23T17:40:15;8.82;;;7.22;;
39822;SDS011;25499;53.958;10.970;2023-04-23T17:42:42;8.80;;;7.30;;
39822;SDS011;25499;53.958;10.970;2023-04-23T17:45:10;9.80;;;7.75;;
39822;SDS011;25499;53.958;10.970;2023-04-23T17:47:37;8.77;;;7.15;;
39822;SDS011;25499;53.958;10.970;2023-04-23T17:50:05;9.82;;;8.00;;
39822;SDS011;25499;53.958;10.970;2023-04-23T17:55:03;7.70;;;6.70;;
39822;SDS011;25499;53.958;10.970;2023-04-23T17:57:30;9.43;;;6.07;;
39822;SDS011;25499;53.958;10.970;2023-04-23T17:59:57;7.50;;;6.13;;
39822;SDS011;25499;53.958;10.970;2023-04-23T18:02:27;10.18;;;7.22;;
39822;SDS011;25499;53.958;10.970;2023-04-23T18:04:54;8.23;;;7.35;;
39822;SDS011;25499;53.958;10.970;2023-04-23T18:07:21;10.18;;;7.20;;
39822;SDS011;25499;53.958;10.970;2023-04-23T18:09:47;9.88;;;7.68;;
39822;SDS011;25499;53.958;10.970;2023-04-23T18:12:14;8.07;;;7.15;;
39822;SDS011;25499;53.958;10.970;2023-04-23T18:14:41;8.20;;;7.03;;
39822;SDS011;25499;53.958;10.970;2023-04-23T18:17:07;8.68;;;7.15;;
39822;SDS011;25499;53.958;10.970;2023-04-23T18:19:36;9.65;;;7.72;;
39822;SDS011;25499;53.958;10.970;2023-04-23T18:22:02;8.90;;;7.85;;
39822;SDS011;25499;53.958;10.970;2023-04-23T18:24:29;9.80;;;7.82;;
39822;SDS011;25499;53.958;10.970;2023-04-23T18:26:56;9.23;;;7.45;;
39822;SDS011;25499;53.958;10.970;2023-04-23T18:29:23;8.82;;;7.93;;
39822;SDS011;25499;53.958;10.970;2023-04-23T18:31:50;8.25;;;7.45;;
39822;SDS011;25499;53.958;10.970;2023-04-23T18:34:17;8.23;;;7.32;;
39822;SDS011;25499;53.958;10.970;2023-04-23T18:36:52;9.00;;;8.00;;
39822;SDS011;25499;53.958;10.970;2023-04-23T18:39:20;8.68;;;7.78;;
39822;SDS011;25499;53.958;10.970;2023-04-23T18:41:47;9.48;;;8.30;;
39822;SDS011;25499;53.958;10.970;2023-04-23T18:44:13;10.63;;;7.60;;
39822;SDS011;25499;53.958;10.970;2023-04-23T18:46:41;10.88;;;7.75;;
39822;SDS011;25499;53.958;10.970;2023-04-23T18:49:24;10.23;;;7.80;;
39822;SDS011;25499;53.958;10.970;2023-04-23T18:52:06;11.98;;;8.38;;
39822;SDS011;25499;53.958;10.970;2023-04-23T18:54:33;10.15;;;8.70;;
39822;SDS011;25499;53.958;10.970;2023-04-23T18:56:59;10.38;;;9.18;;
39822;SDS011;25499;53.958;10.970;2023-04-23T18:59:27;9.82;;;8.82;;
39822;SDS011;25499;53.958;10.970;2023-04-23T19:04:24;10.35;;;8.70;;
39822;SDS011;25499;53.958;10.970;2023-04-23T19:06:51;9.18;;;8.25;;
39822;SDS011;25499;53.958;10.970;2023-04-23T19:09:19;9.18;;;8.02;;
39822;SDS011;25499;53.958;10.970;2023-04-23T19:11:47;9.98;;;8.20;;
39822;SDS011;25499;53.958;10.970;2023-04-23T19:14:14;10.10;;;7.93;;
39822;SDS011;25499;53.958;10.970;2023-04-23T19:16:43;9.63;;;7.88;;
39822;SDS011;25499;53.958;10.970;2023-04-23T19:19:09;8.85;;;7.95;;
39822;SDS011;25499;53.958;10.970;2023-04-23T19:21:36;8.73;;;7.80;;
39822;SDS011;25499;53.958;10.970;2023-04-23T19:24:04;8.93;;;7.70;;
39822;SDS011;25499;53.958;10.970;2023-04-23T19:26:32;12.75;;;8.20;;
39822;SDS011;25499;53.958;10.970;2023-04-23T19:28:59;8.88;;;7.68;;
39822;SDS011;25499;53.958;10.970;2023-04-23T19:31:26;8.90;;;7.20;;
39822;SDS011;25499;53.958;10.970;2023-04-23T19:33:54;10.82;;;7.88;;
39822;SDS011;25499;53.958;10.970;2023-04-23T19:36:22;8.48;;;7.50;;
39822;SDS011;25499;53.958;10.970;2023-04-23T19:38:49;8.02;;;7.00;;
39822;SDS011;25499;53.958;10.970;2023-04-23T19:41:16;9.32;;;7.20;;
39822;SDS011;25499;53.958;10.970;2023-04-23T19:43:44;9.07;;;7.10;;
39822;SDS011;25499;53.958;10.970;2023-04-23T19:46:11;7.97;;;7.13;;
39822;SDS011;25499;53.958;10.970;2023-04-23T19:48:38;8.60;;;7.15;;
39822;SDS011;25499;53.958;10.970;2023-04-23T19:51:05;7.47;;;6.72;;
39822;SDS011;25499;53.958;10.970;2023-04-23T19:53:32;9.73;;;6.90;;
39822;SDS011;25499;53.958;10.970;2023-04-23T19:55:59;8.07;;;6.78;;
39822;SDS011;25499;53.958;10.970;2023-04-23T19:58:25;6.90;;;6.20;;
39822;SDS011;25499;53.958;10.970;2023-04-23T20:00:54;6.25;;;5.63;;
39822;SDS011;25499;53.958;10.970;2023-04-23T20:03:22;6.07;;;5.47;;
39822;SDS011;25499;53.958;10.970;2023-04-23T20:05:48;7.75;;;5.75;;
39822;SDS011;25499;53.958;10.970;2023-04-23T20:08:16;6.57;;;5.43;;
